sensor_id;sensor_type;location;lat;lon;timestamp;P1;durP1;ratioP1;P2;durP2;ratioP2
41293;SDS011;27037;52.010;4.446;2024-03-23T00:54:08;24.80;;;5.57;;
41293;SDS011;27037;52.010;4.446;2024-03-23T00:56:33;30.23;;;5.88;;
41293;SDS011;27037;52.010;4.446;2024-03-23T00:58:59;29.23;;;6.10;;
41293;SDS011;27037;52.010;4.446;2024-03-23T01:01:24;21.95;;;5.15;;
41293;SDS011;27037;52.010;4.446;2024-03-23T01:03:50;23.17;;;4.70;;
41293;SDS011;27037;52.010;4.446;2024-03-23T01:06:15;24.55;;;4.90;;
41293;SDS011;27037;52.010;4.446;2024-03-23T01:08:41;22.38;;;4.47;;
41293;SDS011;27037;52.010;4.446;2024-03-23T01:11:07;22.05;;;4.63;;
41293;SDS011;27037;52.010;4.446;2024-03-23T01:13:33;20.20;;;3.80;;
41293;SDS011;27037;52.010;4.446;2024-03-23T01:15:58;24.90;;;3.72;;
41293;SDS011;27037;52.010;4.446;2024-03-23T01:18:24;18.13;;;2.85;;
41293;SDS011;27037;52.010;4.446;2024-03-23T01:20:51;21.45;;;3.50;;
41293;SDS011;27037;52.010;4.446;2024-03-23T01:23:17;18.77;;;3.13;;
41293;SDS011;27037;52.010;4.446;2024-03-23T01:25:42;20.90;;;3.03;;
41293;SDS011;27037;52.010;4.446;2024-03-23T01:28:08;16.70;;;3.17;;
41293;SDS011;27037;52.010;4.446;2024-03-23T01:30:34;18.00;;;3.17;;
41293;SDS011;27037;52.010;4.446;2024-03-23T01:33:00;20.55;;;3.42;;
41293;SDS011;27037;52.010;4.446;2024-03-23T01:35:27;22.65;;;3.35;;
41293;SDS011;27037;52.010;4.446;2024-03-23T01:37:53;15.82;;;3.60;;
41293;SDS011;27037;52.010;4.446;2024-03-23T01:40:19;23.35;;;3.47;;
41293;SDS011;27037;52.010;4.446;2024-03-23T01:42:57;17.98;;;3.00;;
41293;SDS011;27037;52.010;4.446;2024-03-23T01:45:29;19.20;;;2.90;;
41293;SDS011;27037;52.010;4.446;2024-03-23T01:47:56;17.15;;;2.88;;
41293;SDS011;27037;52.010;4.446;2024-03-23T01:50:22;22.52;;;3.05;;
41293;SDS011;27037;52.010;4.446;2024-03-23T01:52:48;17.67;;;2.95;;
41293;SDS011;27037;52.010;4.446;2024-03-23T01:55:15;18.77;;;2.70;;
41293;SDS011;27037;52.010;4.446;2024-03-23T01:57:41;19.55;;;3.03;;
41293;SDS011;27037;52.010;4.446;2024-03-23T02:00:06;21.88;;;3.50;;
41293;SDS011;27037;52.010;4.446;2024-03-23T02:02:33;13.77;;;2.53;;
41293;SDS011;27037;52.010;4.446;2024-03-23T02:04:59;17.50;;;2.70;;
41293;SDS011;27037;52.010;4.446;2024-03-23T02:07:24;15.75;;;3.20;;
41293;SDS011;27037;52.010;4.446;2024-03-23T02:09:53;16.23;;;2.42;;
41293;SDS011;27037;52.010;4.446;2024-03-23T02:12:19;26.95;;;3.13;;
41293;SDS011;27037;52.010;4.446;2024-03-23T02:14:46;23.13;;;2.83;;
41293;SDS011;27037;52.010;4.446;2024-03-23T02:17:11;15.23;;;2.45;;
41293;SDS011;27037;52.010;4.446;2024-03-23T02:19:37;15.95;;;2.40;;
41293;SDS011;27037;52.010;4.446;2024-03-23T02:22:03;25.17;;;3.45;;
41293;SDS011;27037;52.010;4.446;2024-03-23T02:24:29;15.52;;;2.88;;
41293;SDS011;27037;52.010;4.446;2024-03-23T02:26:55;20.13;;;2.75;;
41293;SDS011;27037;52.010;4.446;2024-03-23T02:29:20;16.45;;;2.80;;
41293;SDS011;27037;52.010;4.446;2024-03-23T02:31:46;23.58;;;2.67;;
41293;SDS011;27037;52.010;4.446;2024-03-23T02:34:12;13.45;;;2.85;;
41293;SDS011;27037;52.010;4.446;2024-03-23T02:36:37;20.48;;;3.10;;
41293;SDS011;27037;52.010;4.446;2024-03-23T02:39:03;14.23;;;2.40;;
41293;SDS011;27037;52.010;4.446;2024-03-23T02:41:28;14.93;;;2.42;;
41293;SDS011;27037;52.010;4.446;2024-03-23T02:43:54;22.60;;;2.80;;
41293;SDS011;27037;52.010;4.446;2024-03-23T02:46:19;20.52;;;2.28;;
41293;SDS011;27037;52.010;4.446;2024-03-23T02:48:45;20.17;;;2.50;;
41293;SDS011;27037;52.010;4.446;2024-03-23T02:51:13;13.27;;;2.33;;
41293;SDS011;27037;52.010;4.446;2024-03-23T02:53:39;22.13;;;2.67;;
41293;SDS011;27037;52.010;4.446;2024-03-23T02:56:04;17.80;;;2.50;;
41293;SDS011;27037;52.010;4.446;2024-03-23T02:58:30;14.82;;;2.67;;
41293;SDS011;27037;52.010;4.446;2024-03-23T03:00:56;13.93;;;2.20;;
41293;SDS011;27037;52.010;4.446;2024-03-23T03:03:21;28.40;;;3.45;;
41293;SDS011;27037;52.010;4.446;2024-03-23T03:05:47;12.93;;;2.03;;
41293;SDS011;27037;52.010;4.446;2024-03-23T03:08:12;18.20;;;2.53;;
41293;SDS011;27037;52.010;4.446;2024-03-23T03:10:38;20.10;;;2.33;;
41293;SDS011;27037;52.010;4.446;2024-03-23T03:13:03;19.95;;;2.67;;
41293;SDS011;27037;52.010;4.446;2024-03-23T03:15:29;15.55;;;2.83;;
41293;SDS011;27037;52.010;4.446;2024-03-23T03:17:55;15.07;;;2.38;;
41293;SDS011;27037;52.010;4.446;2024-03-23T03:20:20;19.35;;;2.28;;
41293;SDS011;27037;52.010;4.446;2024-03-23T03:22:48;14.88;;;2.10;;
41293;SDS011;27037;52.010;4.446;2024-03-23T03:25:14;16.42;;;2.17;;
41293;SDS011;27037;52.010;4.446;2024-03-23T03:27:39;14.27;;;2.17;;
41293;SDS011;27037;52.010;4.446;2024-03-23T03:30:05;18.08;;;2.03;;
41293;SDS011;27037;52.010;4.446;2024-03-23T03:32:33;11.35;;;2.08;;
41293;SDS011;27037;52.010;4.446;2024-03-23T03:35:00;15.35;;;2.38;;
41293;SDS011;27037;52.010;4.446;2024-03-23T03:37:25;14.75;;;2.08;;
41293;SDS011;27037;52.010;4.446;2024-03-23T03:39:51;21.60;;;2.80;;
41293;SDS011;27037;52.010;4.446;2024-03-23T03:42:16;8.57;;;2.00;;
41293;SDS011;27037;52.010;4.446;2024-03-23T03:44:42;12.77;;;2.30;;
41293;SDS011;27037;52.010;4.446;2024-03-23T03:47:07;16.55;;;2.08;;
41293;SDS011;27037;52.010;4.446;2024-03-23T03:49:33;15.13;;;2.58;;
41293;SDS011;27037;52.010;4.446;2024-03-23T03:51:58;21.65;;;2.40;;
41293;SDS011;27037;52.010;4.446;2024-03-23T03:54:26;18.52;;;2.53;;
41293;SDS011;27037;52.010;4.446;2024-03-23T03:56:51;12.90;;;2.22;;
41293;SDS011;27037;52.010;4.446;2024-03-23T03:59:17;18.30;;;2.67;;
41293;SDS011;27037;52.010;4.446;2024-03-23T04:01:42;12.02;;;1.98;;
41293;SDS011;27037;52.010;4.446;2024-03-23T04:04:08;15.23;;;2.50;;
41293;SDS011;27037;52.010;4.446;2024-03-23T04:06:33;13.15;;;2.17;;
41293;SDS011;27037;52.010;4.446;2024-03-23T04:08:59;13.20;;;2.05;;
41293;SDS011;27037;52.010;4.446;2024-03-23T04:11:25;14.52;;;1.83;;
41293;SDS011;27037;52.010;4.446;2024-03-23T04:13:50;17.52;;;2.13;;
41293;SDS011;27037;52.010;4.446;2024-03-23T04:16:28;15.38;;;2.30;;
41293;SDS011;27037;52.010;4.446;2024-03-23T04:18:55;13.30;;;2.08;;
41293;SDS011;27037;52.010;4.446;2024-03-23T04:21:21;18.00;;;2.90;;
41293;SDS011;27037;52.010;4.446;2024-03-23T04:23:47;15.23;;;2.50;;
41293;SDS011;27037;52.010;4.446;2024-03-23T04:26:12;15.75;;;2.50;;
41293;SDS011;27037;52.010;4.446;2024-03-23T04:28:39;15.52;;;2.58;;
41293;SDS011;27037;52.010;4.446;2024-03-23T04:31:04;20.27;;;2.90;;
41293;SDS011;27037;52.010;4.446;2024-03-23T04:33:30;21.80;;;3.05;;
41293;SDS011;27037;52.010;4.446;2024-03-23T04:35:56;14.55;;;2.58;;
41293;SDS011;27037;52.010;4.446;2024-03-23T04:38:22;21.15;;;2.65;;
41293;SDS011;27037;52.010;4.446;2024-03-23T04:40:56;13.85;;;2.70;;
41293;SDS011;27037;52.010;4.446;2024-03-23T04:43:27;16.40;;;2.67;;
41293;SDS011;27037;52.010;4.446;2024-03-23T04:45:53;14.90;;;2.80;;
41293;SDS011;27037;52.010;4.446;2024-03-23T04:48:22;13.02;;;2.58;;
41293;SDS011;27037;52.010;4.446;2024-03-23T04:50:48;17.52;;;2.70;;
41293;SDS011;27037;52.010;4.446;2024-03-23T04:53:15;14.68;;;2.72;;
41293;SDS011;27037;52.010;4.446;2024-03-23T04:55:41;13.55;;;2.90;;
41293;SDS011;27037;52.010;4.446;2024-03-23T04:58:07;15.30;;;2.90;;
41293;SDS011;27037;52.010;4.446;2024-03-23T05:00:33;16.92;;;3.03;;
41293;SDS011;27037;52.010;4.446;2024-03-23T05:02:59;17.42;;;3.10;;
41293;SDS011;27037;52.010;4.446;2024-03-23T05:05:24;15.68;;;3.08;;
41293;SDS011;27037;52.010;4.446;2024-03-23T05:07:50;12.85;;;2.70;;
41293;SDS011;27037;52.010;4.446;2024-03-23T05:10:15;21.55;;;3.25;;
41293;SDS011;27037;52.010;4.446;2024-03-23T05:12:41;16.17;;;3.55;;
41293;SDS011;27037;52.010;4.446;2024-03-23T05:15:07;17.67;;;3.90;;
41293;SDS011;27037;52.010;4.446;2024-03-23T05:17:33;16.23;;;3.67;;
41293;SDS011;27037;52.010;4.446;2024-03-23T05:19:58;18.80;;;3.53;;
41293;SDS011;27037;52.010;4.446;2024-03-23T05:22:24;18.77;;;3.55;;
41293;SDS011;27037;52.010;4.446;2024-03-23T05:24:50;19.55;;;3.65;;
41293;SDS011;27037;52.010;4.446;2024-03-23T05:27:15;18.33;;;3.22;;
41293;SDS011;27037;52.010;4.446;2024-03-23T05:29:41;16.58;;;3.72;;
41293;SDS011;27037;52.010;4.446;2024-03-23T05:32:06;11.32;;;3.13;;
41293;SDS011;27037;52.010;4.446;2024-03-23T05:34:32;19.52;;;2.92;;
41293;SDS011;27037;52.010;4.446;2024-03-23T05:36:58;13.15;;;2.95;;
41293;SDS011;27037;52.010;4.446;2024-03-23T05:39:24;16.33;;;3.47;;
41293;SDS011;27037;52.010;4.446;2024-03-23T05:41:50;18.10;;;2.80;;
41293;SDS011;27037;52.010;4.446;2024-03-23T05:44:16;22.05;;;3.30;;
41293;SDS011;27037;52.010;4.446;2024-03-23T05:46:41;18.08;;;3.70;;
41293;SDS011;27037;52.010;4.446;2024-03-23T05:49:07;19.63;;;3.58;;
41293;SDS011;27037;52.010;4.446;2024-03-23T05:51:33;19.00;;;3.20;;
41293;SDS011;27037;52.010;4.446;2024-03-23T05:53:59;15.85;;;2.92;;
41293;SDS011;27037;52.010;4.446;2024-03-23T05:56:24;11.88;;;2.92;;
41293;SDS011;27037;52.010;4.446;2024-03-23T05:58:53;20.15;;;2.97;;
41293;SDS011;27037;52.010;4.446;2024-03-23T06:01:18;18.77;;;2.92;;
41293;SDS011;27037;52.010;4.446;2024-03-23T06:03:44;26.52;;;3.15;;
41293;SDS011;27037;52.010;4.446;2024-03-23T06:06:10;18.05;;;3.40;;
41293;SDS011;27037;52.010;4.446;2024-03-23T06:08:37;16.80;;;2.85;;
41293;SDS011;27037;52.010;4.446;2024-03-23T06:11:03;14.77;;;2.80;;
41293;SDS011;27037;52.010;4.446;2024-03-23T06:13:31;15.43;;;2.80;;
41293;SDS011;27037;52.010;4.446;2024-03-23T06:15:57;19.48;;;3.08;;
41293;SDS011;27037;52.010;4.446;2024-03-23T06:18:23;13.90;;;3.13;;
41293;SDS011;27037;52.010;4.446;2024-03-23T06:20:49;21.20;;;3.13;;
41293;SDS011;27037;52.010;4.446;2024-03-23T06:23:15;18.83;;;2.90;;
41293;SDS011;27037;52.010;4.446;2024-03-23T06:25:42;15.07;;;2.90;;
41293;SDS011;27037;52.010;4.446;2024-03-23T06:28:08;15.88;;;3.03;;
41293;SDS011;27037;52.010;4.446;2024-03-23T06:30:33;20.25;;;2.75;;
41293;SDS011;27037;52.010;4.446;2024-03-23T06:32:59;17.27;;;2.65;;
41293;SDS011;27037;52.010;4.446;2024-03-23T06:35:24;15.55;;;2.80;;
41293;SDS011;27037;52.010;4.446;2024-03-23T06:37:50;19.20;;;2.60;;
41293;SDS011;27037;52.010;4.446;2024-03-23T06:40:16;15.05;;;2.90;;
41293;SDS011;27037;52.010;4.446;2024-03-23T06:42:41;14.27;;;2.55;;
41293;SDS011;27037;52.010;4.446;2024-03-23T06:45:07;12.07;;;2.22;;
41293;SDS011;27037;52.010;4.446;2024-03-23T06:47:33;13.45;;;2.50;;
41293;SDS011;27037;52.010;4.446;2024-03-23T06:50:01;25.00;;;2.92;;
41293;SDS011;27037;52.010;4.446;2024-03-23T06:52:28;13.13;;;2.58;;
41293;SDS011;27037;52.010;4.446;2024-03-23T06:54:53;16.70;;;2.58;;
41293;SDS011;27037;52.010;4.446;2024-03-23T06:57:19;22.23;;;3.03;;
41293;SDS011;27037;52.010;4.446;2024-03-23T06:59:44;16.67;;;2.78;;
41293;SDS011;27037;52.010;4.446;2024-03-23T07:02:10;10.25;;;2.30;;
41293;SDS011;27037;52.010;4.446;2024-03-23T07:04:36;17.33;;;2.70;;
41293;SDS011;27037;52.010;4.446;2024-03-23T07:07:04;19.13;;;2.60;;
41293;SDS011;27037;52.010;4.446;2024-03-23T07:09:30;17.05;;;2.67;;
41293;SDS011;27037;52.010;4.446;2024-03-23T07:11:56;19.25;;;3.15;;
41293;SDS011;27037;52.010;4.446;2024-03-23T07:14:22;16.20;;;2.97;;
41293;SDS011;27037;52.010;4.446;2024-03-23T07:16:48;11.75;;;2.58;;
41293;SDS011;27037;52.010;4.446;2024-03-23T07:19:15;17.30;;;2.85;;
41293;SDS011;27037;52.010;4.446;2024-03-23T07:21:41;19.63;;;3.45;;
41293;SDS011;27037;52.010;4.446;2024-03-23T07:24:07;15.63;;;3.08;;
41293;SDS011;27037;52.010;4.446;2024-03-23T07:26:33;13.15;;;2.70;;
41293;SDS011;27037;52.010;4.446;2024-03-23T07:28:59;12.15;;;2.58;;
41293;SDS011;27037;52.010;4.446;2024-03-23T07:31:24;23.45;;;3.20;;
41293;SDS011;27037;52.010;4.446;2024-03-23T07:33:50;14.07;;;2.35;;
41293;SDS011;27037;52.010;4.446;2024-03-23T07:36:16;14.52;;;2.45;;
41293;SDS011;27037;52.010;4.446;2024-03-23T07:38:42;17.17;;;2.33;;
41293;SDS011;27037;52.010;4.446;2024-03-23T07:41:10;15.98;;;2.55;;
41293;SDS011;27037;52.010;4.446;2024-03-23T07:43:37;14.02;;;2.38;;
41293;SDS011;27037;52.010;4.446;2024-03-23T07:46:04;15.05;;;2.53;;
41293;SDS011;27037;52.010;4.446;2024-03-23T07:48:30;12.30;;;2.28;;
41293;SDS011;27037;52.010;4.446;2024-03-23T07:50:59;15.88;;;2.83;;
41293;SDS011;27037;52.010;4.446;2024-03-23T07:53:29;16.33;;;2.47;;
41293;SDS011;27037;52.010;4.446;2024-03-23T07:56:03;17.35;;;2.60;;
41293;SDS011;27037;52.010;4.446;2024-03-23T07:58:30;11.77;;;2.40;;
41293;SDS011;27037;52.010;4.446;2024-03-23T08:00:56;13.77;;;2.80;;
41293;SDS011;27037;52.010;4.446;2024-03-23T08:03:35;18.08;;;2.67;;
41293;SDS011;27037;52.010;4.446;2024-03-23T08:06:17;13.85;;;2.45;;
41293;SDS011;27037;52.010;4.446;2024-03-23T08:08:45;14.82;;;2.63;;
41293;SDS011;27037;52.010;4.446;2024-03-23T08:11:14;14.77;;;2.83;;
41293;SDS011;27037;52.010;4.446;2024-03-23T08:13:40;16.30;;;2.72;;
41293;SDS011;27037;52.010;4.446;2024-03-23T08:16:07;18.63;;;2.78;;
41293;SDS011;27037;52.010;4.446;2024-03-23T08:18:36;12.13;;;2.67;;
41293;SDS011;27037;52.010;4.446;2024-03-23T08:21:02;12.70;;;2.70;;
41293;SDS011;27037;52.010;4.446;2024-03-23T08:23:35;14.18;;;2.75;;
41293;SDS011;27037;52.010;4.446;2024-03-23T08:26:06;17.13;;;2.70;;
41293;SDS011;27037;52.010;4.446;2024-03-23T08:28:34;18.27;;;2.83;;
41293;SDS011;27037;52.010;4.446;2024-03-23T08:31:00;16.90;;;2.92;;
41293;SDS011;27037;52.010;4.446;2024-03-23T08:33:27;14.15;;;2.50;;
41293;SDS011;27037;52.010;4.446;2024-03-23T08:38:26;14.75;;;2.85;;
41293;SDS011;27037;52.010;4.446;2024-03-23T08:41:02;13.65;;;2.50;;
41293;SDS011;27037;52.010;4.446;2024-03-23T08:43:29;17.63;;;2.75;;
41293;SDS011;27037;52.010;4.446;2024-03-23T08:46:09;12.13;;;2.50;;
41293;SDS011;27037;52.010;4.446;2024-03-23T08:48:39;12.32;;;2.38;;
41293;SDS011;27037;52.010;4.446;2024-03-23T08:51:14;14.48;;;2.88;;
41293;SDS011;27037;52.010;4.446;2024-03-23T08:53:40;18.80;;;2.95;;
41293;SDS011;27037;52.010;4.446;2024-03-23T08:56:06;22.15;;;2.80;;
41293;SDS011;27037;52.010;4.446;2024-03-23T08:58:33;14.75;;;2.60;;
41293;SDS011;27037;52.010;4.446;2024-03-23T09:01:03;15.25;;;2.53;;
41293;SDS011;27037;52.010;4.446;2024-03-23T09:03:32;20.08;;;2.78;;
41293;SDS011;27037;52.010;4.446;2024-03-23T09:05:57;15.63;;;2.53;;
41293;SDS011;27037;52.010;4.446;2024-03-23T09:08:24;13.65;;;2.30;;
41293;SDS011;27037;52.010;4.446;2024-03-23T09:10:51;13.25;;;2.20;;
41293;SDS011;27037;52.010;4.446;2024-03-23T09:13:17;15.30;;;2.70;;
41293;SDS011;27037;52.010;4.446;2024-03-23T09:15:47;11.23;;;2.22;;
41293;SDS011;27037;52.010;4.446;2024-03-23T09:18:14;13.73;;;2.30;;
41293;SDS011;27037;52.010;4.446;2024-03-23T09:20:39;15.93;;;2.17;;
41293;SDS011;27037;52.010;4.446;2024-03-23T09:23:05;14.02;;;2.30;;
41293;SDS011;27037;52.010;4.446;2024-03-23T09:25:30;22.15;;;2.42;;
41293;SDS011;27037;52.010;4.446;2024-03-23T09:27:57;13.77;;;2.22;;
41293;SDS011;27037;52.010;4.446;2024-03-23T09:30:23;20.42;;;2.45;;
41293;SDS011;27037;52.010;4.446;2024-03-23T09:32:49;20.15;;;2.60;;
41293;SDS011;27037;52.010;4.446;2024-03-23T09:35:14;12.05;;;2.15;;
41293;SDS011;27037;52.010;4.446;2024-03-23T09:37:43;15.88;;;2.45;;
41293;SDS011;27037;52.010;4.446;2024-03-23T09:40:10;22.50;;;3.00;;
41293;SDS011;27037;52.010;4.446;2024-03-23T09:42:36;14.07;;;2.53;;
41293;SDS011;27037;52.010;4.446;2024-03-23T09:45:04;14.02;;;2.35;;
41293;SDS011;27037;52.010;4.446;2024-03-23T09:47:36;19.65;;;2.70;;
41293;SDS011;27037;52.010;4.446;2024-03-23T09:50:02;19.17;;;3.10;;
41293;SDS011;27037;52.010;4.446;2024-03-23T09:52:29;14.27;;;1.95;;
41293;SDS011;27037;52.010;4.446;2024-03-23T09:54:56;15.25;;;2.38;;
41293;SDS011;27037;52.010;4.446;2024-03-23T09:57:22;15.05;;;2.30;;
41293;SDS011;27037;52.010;4.446;2024-03-23T09:59:47;17.02;;;2.53;;
41293;SDS011;27037;52.010;4.446;2024-03-23T10:02:15;13.32;;;2.00;;
41293;SDS011;27037;52.010;4.446;2024-03-23T10:04:42;18.90;;;2.33;;
41293;SDS011;27037;52.010;4.446;2024-03-23T10:07:14;18.95;;;2.53;;
41293;SDS011;27037;52.010;4.446;2024-03-23T10:09:42;13.90;;;2.30;;
41293;SDS011;27037;52.010;4.446;2024-03-23T10:12:11;17.42;;;2.47;;
41293;SDS011;27037;52.010;4.446;2024-03-23T10:14:44;14.75;;;2.58;;
41293;SDS011;27037;52.010;4.446;2024-03-23T10:17:20;16.42;;;2.50;;
41293;SDS011;27037;52.010;4.446;2024-03-23T10:19:51;11.05;;;1.92;;
41293;SDS011;27037;52.010;4.446;2024-03-23T10:22:23;17.63;;;2.40;;
41293;SDS011;27037;52.010;4.446;2024-03-23T10:24:50;16.30;;;2.53;;
41293;SDS011;27037;52.010;4.446;2024-03-23T10:27:16;14.35;;;2.25;;
41293;SDS011;27037;52.010;4.446;2024-03-23T10:29:45;15.18;;;2.72;;
41293;SDS011;27037;52.010;4.446;2024-03-23T10:32:15;17.48;;;3.00;;
41293;SDS011;27037;52.010;4.446;2024-03-23T10:34:42;12.32;;;2.20;;
41293;SDS011;27037;52.010;4.446;2024-03-23T10:37:08;14.95;;;2.72;;
41293;SDS011;27037;52.010;4.446;2024-03-23T10:39:38;12.73;;;2.60;;
41293;SDS011;27037;52.010;4.446;2024-03-23T10:42:05;15.65;;;2.88;;
41293;SDS011;27037;52.010;4.446;2024-03-23T10:44:32;16.08;;;2.85;;
41293;SDS011;27037;52.010;4.446;2024-03-23T10:46:59;15.10;;;2.17;;
41293;SDS011;27037;52.010;4.446;2024-03-23T10:49:32;17.95;;;2.60;;
41293;SDS011;27037;52.010;4.446;2024-03-23T10:51:59;10.05;;;2.30;;
41293;SDS011;27037;52.010;4.446;2024-03-23T10:54:25;12.10;;;2.50;;
41293;SDS011;27037;52.010;4.446;2024-03-23T10:56:59;18.27;;;2.58;;
41293;SDS011;27037;52.010;4.446;2024-03-23T10:59:40;17.80;;;2.42;;
41293;SDS011;27037;52.010;4.446;2024-03-23T11:02:05;14.05;;;2.63;;
41293;SDS011;27037;52.010;4.446;2024-03-23T11:04:36;14.90;;;2.45;;
41293;SDS011;27037;52.010;4.446;2024-03-23T11:07:28;14.93;;;2.33;;
41293;SDS011;27037;52.010;4.446;2024-03-23T11:15:11;9.65;;;2.08;;
41293;SDS011;27037;52.010;4.446;2024-03-23T11:17:37;13.18;;;2.20;;
41293;SDS011;27037;52.010;4.446;2024-03-23T11:20:04;17.35;;;2.47;;
41293;SDS011;27037;52.010;4.446;2024-03-23T11:22:49;10.00;;;1.90;;
41293;SDS011;27037;52.010;4.446;2024-03-23T11:25:20;14.07;;;2.15;;
41293;SDS011;27037;52.010;4.446;2024-03-23T11:27:50;16.25;;;2.05;;
41293;SDS011;27037;52.010;4.446;2024-03-23T11:30:18;12.43;;;1.98;;
41293;SDS011;27037;52.010;4.446;2024-03-23T11:32:48;21.33;;;2.15;;
41293;SDS011;27037;52.010;4.446;2024-03-23T11:35:48;13.38;;;2.40;;
41293;SDS011;27037;52.010;4.446;2024-03-23T11:40:37;10.57;;;2.13;;
41293;SDS011;27037;52.010;4.446;2024-03-23T11:43:10;15.45;;;2.25;;
41293;SDS011;27037;52.010;4.446;2024-03-23T11:45:38;10.23;;;2.15;;
41293;SDS011;27037;52.010;4.446;2024-03-23T11:48:07;19.42;;;2.70;;
41293;SDS011;27037;52.010;4.446;2024-03-23T11:50:34;14.38;;;2.10;;
41293;SDS011;27037;52.010;4.446;2024-03-23T11:58:05;12.73;;;2.10;;
41293;SDS011;27037;52.010;4.446;2024-03-23T12:00:31;13.48;;;1.92;;
41293;SDS011;27037;52.010;4.446;2024-03-23T12:03:00;17.25;;;2.40;;
41293;SDS011;27037;52.010;4.446;2024-03-23T12:05:26;10.98;;;2.08;;
41293;SDS011;27037;52.010;4.446;2024-03-23T12:07:52;9.50;;;2.33;;
41293;SDS011;27037;52.010;4.446;2024-03-23T12:10:19;11.90;;;2.13;;
41293;SDS011;27037;52.010;4.446;2024-03-23T12:12:44;13.48;;;2.17;;
41293;SDS011;27037;52.010;4.446;2024-03-23T12:15:10;11.45;;;2.20;;
41293;SDS011;27037;52.010;4.446;2024-03-23T12:17:37;13.93;;;2.50;;
41293;SDS011;27037;52.010;4.446;2024-03-23T12:20:03;12.50;;;1.92;;
41293;SDS011;27037;52.010;4.446;2024-03-23T12:22:29;7.28;;;1.50;;
41293;SDS011;27037;52.010;4.446;2024-03-23T12:24:55;8.60;;;1.35;;
41293;SDS011;27037;52.010;4.446;2024-03-23T12:27:21;12.35;;;1.65;;
41293;SDS011;27037;52.010;4.446;2024-03-23T12:29:47;6.85;;;1.50;;
41293;SDS011;27037;52.010;4.446;2024-03-23T12:32:13;6.80;;;1.40;;
41293;SDS011;27037;52.010;4.446;2024-03-23T12:34:39;8.85;;;1.67;;
41293;SDS011;27037;52.010;4.446;2024-03-23T12:37:06;13.63;;;1.60;;
41293;SDS011;27037;52.010;4.446;2024-03-23T12:39:31;9.45;;;2.08;;
41293;SDS011;27037;52.010;4.446;2024-03-23T12:41:57;13.18;;;2.10;;
41293;SDS011;27037;52.010;4.446;2024-03-23T12:44:23;7.35;;;2.28;;
41293;SDS011;27037;52.010;4.446;2024-03-23T12:46:49;9.88;;;2.03;;
41293;SDS011;27037;52.010;4.446;2024-03-23T12:49:14;15.80;;;2.25;;
41293;SDS011;27037;52.010;4.446;2024-03-23T12:51:43;10.50;;;2.10;;
41293;SDS011;27037;52.010;4.446;2024-03-23T12:54:13;11.30;;;1.80;;
41293;SDS011;27037;52.010;4.446;2024-03-23T12:56:39;9.80;;;1.60;;
41293;SDS011;27037;52.010;4.446;2024-03-23T12:59:04;9.57;;;1.83;;
41293;SDS011;27037;52.010;4.446;2024-03-23T13:01:30;11.85;;;2.08;;
41293;SDS011;27037;52.010;4.446;2024-03-23T13:03:56;13.55;;;2.22;;
41293;SDS011;27037;52.010;4.446;2024-03-23T13:06:21;16.77;;;1.92;;
41293;SDS011;27037;52.010;4.446;2024-03-23T13:08:47;9.27;;;2.08;;
41293;SDS011;27037;52.010;4.446;2024-03-23T13:11:14;8.95;;;2.10;;
41293;SDS011;27037;52.010;4.446;2024-03-23T13:13:40;16.70;;;2.35;;
41293;SDS011;27037;52.010;4.446;2024-03-23T13:16:07;9.13;;;1.83;;
41293;SDS011;27037;52.010;4.446;2024-03-23T13:18:32;10.48;;;2.42;;
41293;SDS011;27037;52.010;4.446;2024-03-23T13:20:58;9.50;;;1.88;;
41293;SDS011;27037;52.010;4.446;2024-03-23T13:23:24;15.77;;;2.15;;
41293;SDS011;27037;52.010;4.446;2024-03-23T13:25:53;12.02;;;2.28;;
41293;SDS011;27037;52.010;4.446;2024-03-23T13:28:20;11.38;;;2.38;;
41293;SDS011;27037;52.010;4.446;2024-03-23T13:30:52;10.35;;;1.98;;
41293;SDS011;27037;52.010;4.446;2024-03-23T13:33:18;14.23;;;2.13;;
41293;SDS011;27037;52.010;4.446;2024-03-23T13:35:54;16.38;;;1.95;;
41293;SDS011;27037;52.010;4.446;2024-03-23T13:38:23;10.35;;;2.05;;
41293;SDS011;27037;52.010;4.446;2024-03-23T13:40:56;15.13;;;2.20;;
41293;SDS011;27037;52.010;4.446;2024-03-23T13:43:23;9.90;;;1.73;;
41293;SDS011;27037;52.010;4.446;2024-03-23T13:45:53;11.02;;;1.83;;
41293;SDS011;27037;52.010;4.446;2024-03-23T13:48:20;10.93;;;1.60;;
41293;SDS011;27037;52.010;4.446;2024-03-23T13:50:46;7.85;;;1.27;;
41293;SDS011;27037;52.010;4.446;2024-03-23T13:53:13;8.35;;;1.00;;
41293;SDS011;27037;52.010;4.446;2024-03-23T13:55:48;4.78;;;1.00;;
41293;SDS011;27037;52.010;4.446;2024-03-23T13:58:14;6.22;;;1.33;;
41293;SDS011;27037;52.010;4.446;2024-03-23T14:00:43;8.55;;;1.23;;
41293;SDS011;27037;52.010;4.446;2024-03-23T14:03:09;5.78;;;1.00;;
41293;SDS011;27037;52.010;4.446;2024-03-23T14:05:35;3.45;;;0.82;;
41293;SDS011;27037;52.010;4.446;2024-03-23T14:08:03;6.30;;;1.02;;
41293;SDS011;27037;52.010;4.446;2024-03-23T14:10:30;8.40;;;1.60;;
41293;SDS011;27037;52.010;4.446;2024-03-23T14:12:55;9.20;;;1.42;;
41293;SDS011;27037;52.010;4.446;2024-03-23T14:15:21;15.68;;;1.70;;
41293;SDS011;27037;52.010;4.446;2024-03-23T14:17:46;9.90;;;1.70;;
41293;SDS011;27037;52.010;4.446;2024-03-23T14:20:12;7.30;;;1.83;;
41293;SDS011;27037;52.010;4.446;2024-03-23T14:22:38;10.65;;;1.65;;
41293;SDS011;27037;52.010;4.446;2024-03-23T14:25:06;10.95;;;1.65;;
41293;SDS011;27037;52.010;4.446;2024-03-23T14:27:32;15.00;;;1.98;;
41293;SDS011;27037;52.010;4.446;2024-03-23T14:29:57;15.23;;;1.98;;
41293;SDS011;27037;52.010;4.446;2024-03-23T14:32:23;16.55;;;1.85;;
41293;SDS011;27037;52.010;4.446;2024-03-23T14:34:48;10.15;;;1.77;;
41293;SDS011;27037;52.010;4.446;2024-03-23T14:37:14;11.57;;;2.13;;
41293;SDS011;27037;52.010;4.446;2024-03-23T14:39:41;14.65;;;2.58;;
41293;SDS011;27037;52.010;4.446;2024-03-23T14:42:07;14.75;;;2.13;;
41293;SDS011;27037;52.010;4.446;2024-03-23T14:44:35;12.90;;;2.10;;
41293;SDS011;27037;52.010;4.446;2024-03-23T14:47:01;14.90;;;2.00;;
41293;SDS011;27037;52.010;4.446;2024-03-23T14:49:26;16.52;;;2.40;;
41293;SDS011;27037;52.010;4.446;2024-03-23T14:51:52;10.18;;;1.63;;
41293;SDS011;27037;52.010;4.446;2024-03-23T14:54:17;7.38;;;1.48;;
41293;SDS011;27037;52.010;4.446;2024-03-23T14:56:43;7.88;;;1.45;;
41293;SDS011;27037;52.010;4.446;2024-03-23T14:59:08;13.15;;;1.48;;
41293;SDS011;27037;52.010;4.446;2024-03-23T15:01:34;9.57;;;1.75;;
41293;SDS011;27037;52.010;4.446;2024-03-23T15:04:00;10.38;;;2.10;;
41293;SDS011;27037;52.010;4.446;2024-03-23T15:06:25;7.70;;;1.35;;
41293;SDS011;27037;52.010;4.446;2024-03-23T15:08:51;8.07;;;1.65;;
41293;SDS011;27037;52.010;4.446;2024-03-23T15:11:17;12.02;;;1.75;;
41293;SDS011;27037;52.010;4.446;2024-03-23T15:13:44;16.88;;;2.05;;
41293;SDS011;27037;52.010;4.446;2024-03-23T15:16:11;9.18;;;1.20;;
41293;SDS011;27037;52.010;4.446;2024-03-23T15:18:41;6.97;;;1.60;;
41293;SDS011;27037;52.010;4.446;2024-03-23T15:21:06;8.25;;;1.50;;
41293;SDS011;27037;52.010;4.446;2024-03-23T15:23:36;7.13;;;1.40;;
41293;SDS011;27037;52.010;4.446;2024-03-23T15:26:02;9.25;;;1.40;;
41293;SDS011;27037;52.010;4.446;2024-03-23T15:28:28;10.38;;;1.55;;
41293;SDS011;27037;52.010;4.446;2024-03-23T15:31:18;8.52;;;1.58;;
41293;SDS011;27037;52.010;4.446;2024-03-23T15:33:43;7.88;;;1.55;;
41293;SDS011;27037;52.010;4.446;2024-03-23T15:36:09;9.02;;;1.75;;
41293;SDS011;27037;52.010;4.446;2024-03-23T15:38:35;6.60;;;1.50;;
41293;SDS011;27037;52.010;4.446;2024-03-23T15:41:00;4.03;;;1.05;;
41293;SDS011;27037;52.010;4.446;2024-03-23T15:43:26;8.57;;;1.65;;